createdAt,value
2022-12-16T00:03:22.890Z,110.70
2022-12-16T00:13:28.366Z,106.10
2022-12-16T00:23:33.757Z,105.40
2022-12-16T00:33:38.034Z,112.60
2022-12-16T00:43:41.795Z,86.00
2022-12-16T00:53:45.666Z,120.30
2022-12-16T01:03:49.899Z,102.50
2022-12-16T01:13:55.453Z,106.60
2022-12-16T01:23:59.833Z,112.30
2022-12-16T01:34:03.806Z,99.70
2022-12-16T01:44:16.728Z,95.90
2022-12-16T01:54:31.907Z,102.30
2022-12-16T02:04:35.683Z,105.10
2022-12-16T02:15:05.441Z,96.90
2022-12-16T02:25:37.130Z,86.70
2022-12-16T02:36:11.594Z,92.70
2022-12-16T02:46:17.143Z,83.20
2022-12-16T02:56:35.936Z,77.50
2022-12-16T03:06:42.970Z,74.60
2022-12-16T03:16:49.935Z,74.40
2022-12-16T03:27:21.086Z,77.60
2022-12-16T03:37:29.546Z,69.40
2022-12-16T03:47:33.328Z,79.90
2022-12-16T03:57:37.635Z,73.90
2022-12-16T04:07:42.191Z,68.60
2022-12-16T04:18:04.898Z,73.10
2022-12-16T04:28:08.969Z,73.10
2022-12-16T04:38:31.665Z,78.20
2022-12-16T04:48:54.166Z,75.00
2022-12-16T04:59:17.169Z,65.00
2022-12-16T05:09:39.454Z,72.00
2022-12-16T05:20:02.358Z,66.90
2022-12-16T05:30:30.464Z,67.10
2022-12-16T05:40:55.855Z,75.00
2022-12-16T05:51:18.639Z,68.40
2022-12-16T06:01:41.530Z,67.10
2022-12-16T06:12:11.503Z,66.90
2022-12-16T06:22:34.625Z,66.00
2022-12-16T06:32:57.211Z,61.80
2022-12-16T06:43:19.775Z,57.30
2022-12-16T06:53:42.614Z,47.10
2022-12-16T07:04:05.535Z,39.60
2022-12-16T07:14:28.309Z,44.80
2022-12-16T07:24:51.107Z,40.20
2022-12-16T07:35:13.906Z,32.80
2022-12-16T07:45:43.323Z,39.90
2022-12-16T07:56:07.897Z,31.20
2022-12-16T08:06:33.081Z,41.30
2022-12-16T08:16:59.314Z,26.70
2022-12-16T08:27:23.265Z,29.00
2022-12-16T08:37:47.301Z,20.80
2022-12-16T08:48:10.705Z,15.70
2022-12-16T08:58:33.407Z,19.60
2022-12-16T09:08:56.216Z,20.00
2022-12-16T09:19:18.916Z,18.60
2022-12-16T09:29:44.921Z,21.00
2022-12-16T09:40:07.777Z,18.40
2022-12-16T09:50:44.381Z,21.60
2022-12-16T10:01:08.471Z,21.20
2022-12-16T10:12:09.475Z,21.30
2022-12-16T10:22:47.023Z,21.70
2022-12-16T10:33:10.579Z,24.00
2022-12-16T10:43:38.606Z,32.90
2022-12-16T10:54:03.839Z,32.50
2022-12-16T11:04:56.385Z,42.70
2022-12-16T11:15:39.910Z,42.90
2022-12-16T11:26:02.065Z,27.30
2022-12-16T11:36:33.588Z,17.90
2022-12-16T11:46:56.519Z,18.60
2022-12-16T11:57:21.605Z,31.60
2022-12-16T12:07:55.587Z,29.30
2022-12-16T12:18:30.503Z,30.30
2022-12-16T12:28:53.251Z,22.80
2022-12-16T12:39:39.866Z,15.50
2022-12-16T12:50:16.602Z,18.10
2022-12-16T13:00:42.271Z,18.40
2022-12-16T13:11:18.698Z,23.60
2022-12-16T13:21:57.600Z,17.70
2022-12-16T13:32:23.019Z,21.10
2022-12-16T13:43:09.509Z,18.30
2022-12-16T13:53:35.320Z,18.30
2022-12-16T14:04:06.748Z,17.70
2022-12-16T14:14:46.705Z,19.20
2022-12-16T14:25:10.714Z,21.30
2022-12-16T14:35:45.413Z,18.20
2022-12-16T14:46:10.049Z,26.40
2022-12-16T14:56:38.625Z,50.60
2022-12-16T15:07:06.215Z,30.50
2022-12-16T15:18:01.903Z,34.40
2022-12-16T15:28:24.740Z,39.50
2022-12-16T15:38:51.448Z,41.30
2022-12-16T15:49:14.450Z,45.60
2022-12-16T15:59:53.410Z,46.30
2022-12-16T16:10:30.429Z,45.10
2022-12-16T16:20:52.927Z,54.40
2022-12-16T16:31:15.621Z,49.80
2022-12-16T16:41:38.979Z,49.40
2022-12-16T16:52:02.456Z,55.70
2022-12-16T17:02:40.910Z,55.50
2022-12-16T17:13:05.283Z,54.40
2022-12-16T17:23:28.625Z,63.90
2022-12-16T17:33:51.152Z,59.50
2022-12-16T17:44:16.011Z,64.00
2022-12-16T17:54:39.760Z,70.90
2022-12-16T18:05:03.047Z,70.80
2022-12-16T18:15:26.283Z,67.30
2022-12-16T18:26:00.118Z,72.90
2022-12-16T18:36:25.265Z,75.60
2022-12-16T18:46:48.356Z,65.10
2022-12-16T18:57:12.593Z,70.40
2022-12-16T19:07:36.363Z,73.40
2022-12-16T19:18:00.176Z,81.00
2022-12-16T19:28:24.141Z,81.50
2022-12-16T19:38:47.792Z,80.10
2022-12-16T19:49:13.882Z,80.60
2022-12-16T19:59:40.159Z,87.70
2022-12-16T20:10:03.980Z,76.70
2022-12-16T20:20:28.318Z,84.10
2022-12-16T20:30:52.362Z,89.50
2022-12-16T20:41:21.420Z,97.10
2022-12-16T20:51:45.991Z,89.70
2022-12-16T21:02:29.081Z,106.40
2022-12-16T21:12:53.730Z,109.50
2022-12-16T21:23:24.924Z,104.20
2022-12-16T21:33:49.702Z,91.00
2022-12-16T21:44:13.041Z,107.00
2022-12-16T21:54:36.781Z,104.30
2022-12-16T22:04:59.712Z,112.30
2022-12-16T22:15:22.921Z,93.00
2022-12-16T22:25:45.632Z,94.30
2022-12-16T22:36:08.473Z,107.50
2022-12-16T22:46:32.331Z,98.10
2022-12-16T22:56:56.340Z,95.70
2022-12-16T23:07:19.391Z,90.10
2022-12-16T23:17:42.608Z,108.30
2022-12-16T23:28:05.630Z,102.00
2022-12-16T23:38:29.774Z,93.50
2022-12-16T23:48:52.877Z,97.40
2022-12-16T23:59:17.298Z,92.60
